Time;durP1;ratioP1;P1;durP2;ratioP2;P2;SDS_P1;SDS_P2;PMS_P1;PMS_P2;Temp;Humidity;BMP_temperature;BMP_pressure;BME280_temperature;BME280_humidity;BME280_pressure;Samples;Min_cycle;Max_cycle;Signal;HPM_P1;HPM_P2
2022/01/31 00:02:16;;;;;;;17.73;2.83;;;;;;;1.69;59.03;98187.16;5075911;28;20016;-75
2022/01/31 00:04:42;;;;;;;13.75;3.13;;;;;;;1.68;58.64;98176.56;5078860;28;20030;-74
2022/01/31 00:07:09;;;;;;;13.15;2.90;;;;;;;1.64;58.68;98196.00;5084909;28;20028;-74
2022/01/31 00:09:35;;;;;;;11.02;2.28;;;;;;;1.65;58.87;98186.00;5084435;28;20498;-75
2022/01/31 00:12:05;;;;;;;10.75;2.45;;;;;;;1.67;59.30;98189.28;5093408;28;20057;-75
2022/01/31 00:17:06;;;;;;;12.93;2.45;;;;;;;1.63;58.97;98185.44;5111803;28;20036;-76
2022/01/31 00:19:32;;;;;;;15.02;2.95;;;;;;;1.61;59.09;98199.22;5111771;28;20482;-76
2022/01/31 00:21:58;;;;;;;12.50;2.60;;;;;;;1.62;59.15;98192.75;5111833;28;20031;-75
2022/01/31 00:24:24;;;;;;;5.20;1.90;;;;;;;1.59;58.72;98187.81;5112318;28;20036;-76
2022/01/31 00:26:49;;;;;;;10.48;2.88;;;;;;;1.59;59.06;98185.13;5111519;28;20503;-76
2022/01/31 00:29:15;;;;;;;13.93;3.22;;;;;;;1.59;58.47;98186.97;5093647;28;20035;-76
2022/01/31 00:31:40;;;;;;;11.07;3.28;;;;;;;1.58;59.00;98190.75;5112150;27;20230;-75
2022/01/31 00:34:06;;;;;;;14.32;2.20;;;;;;;1.58;58.67;98179.94;5093988;28;20034;-76
2022/01/31 00:36:31;;;;;;;8.02;1.52;;;;;;;1.59;59.05;98190.53;5112890;28;20397;-76
2022/01/31 00:38:56;;;;;;;10.05;2.10;;;;;;;1.57;58.33;98197.22;5112106;28;20032;-76
2022/01/31 00:41:22;;;;;;;8.25;2.00;;;;;;;1.52;57.86;98195.25;5093372;28;20028;-78
2022/01/31 00:43:58;;;;;;;10.23;2.38;;;;;;;1.51;58.54;98200.91;5111750;28;20084;-76
2022/01/31 00:46:30;;;;;;;11.63;3.13;;;;;;;1.50;58.34;98194.69;5111909;28;20027;-75
2022/01/31 00:48:56;;;;;;;10.77;2.10;;;;;;;1.46;57.73;98188.94;5112274;28;20042;-77
2022/01/31 00:51:21;;;;;;;14.02;2.67;;;;;;;1.45;57.71;98198.09;5111496;28;20028;-77
2022/01/31 00:53:46;;;;;;;17.40;3.25;;;;;;;1.47;58.68;98197.88;5111325;28;20463;-77
2022/01/31 00:56:12;;;;;;;21.45;4.43;;;;;;;1.47;58.14;98201.38;5111625;28;20023;-77
2022/01/31 00:58:37;;;;;;;11.38;2.35;;;;;;;1.46;58.49;98197.03;5111436;28;20073;-77
2022/01/31 01:01:03;;;;;;;11.57;2.63;;;;;;;1.46;57.72;98205.16;5075839;28;20023;-77
2022/01/31 01:03:28;;;;;;;9.35;2.10;;;;;;;1.48;57.49;98202.22;5111182;28;20080;-76
2022/01/31 01:05:54;;;;;;;10.68;2.10;;;;;;;1.48;58.18;98205.72;5111383;28;20024;-77
2022/01/31 01:08:20;;;;;;;8.88;2.15;;;;;;;1.48;58.13;98208.44;5110978;28;20019;-77
2022/01/31 01:10:45;;;;;;;14.80;2.95;;;;;;;1.52;57.54;98189.84;5092718;28;20507;-76
2022/01/31 01:13:11;;;;;;;8.98;2.20;;;;;;;1.53;57.52;98198.78;5110656;28;20069;-77
2022/01/31 01:15:37;;;;;;;10.30;2.05;;;;;;;1.52;58.05;98186.31;5110902;28;20114;-77
2022/01/31 01:18:02;;;;;;;12.43;2.67;;;;;;;1.48;57.83;98183.28;5110670;28;20015;-76
2022/01/31 01:20:28;;;;;;;8.48;2.38;;;;;;;1.44;58.29;98188.34;5111312;28;20034;-76
2022/01/31 01:22:53;;;;;;;9.23;2.00;;;;;;;1.41;57.76;98190.72;5092346;28;20035;-76
2022/01/31 01:25:19;;;;;;;12.63;2.40;;;;;;;1.38;57.86;98189.34;5110697;28;20055;-77
2022/01/31 01:27:48;;;;;;;13.75;2.22;;;;;;;1.37;57.95;98187.72;5112326;27;20475;-76
2022/01/31 01:30:14;;;;;;;11.02;2.42;;;;;;;1.32;57.77;98174.91;5110352;28;20073;-76
2022/01/31 01:33:01;;;;;;;10.55;2.30;;;;;;;1.31;58.31;98170.56;5111026;27;20371;-77
2022/01/31 01:35:32;;;;;;;12.18;2.00;;;;;;;1.33;57.85;98165.75;5090690;28;20036;-76
2022/01/31 01:38:06;;;;;;;12.65;2.85;;;;;;;1.32;57.85;98157.88;5110596;28;20015;-76
2022/01/31 01:40:36;;;;;;;12.40;3.63;;;;;;;1.30;58.65;98144.59;5109628;28;20028;-77
2022/01/31 01:43:01;;;;;;;;;;;;;;;1.32;58.55;98133.56;5093099;28;20043;-77
2022/01/31 01:45:26;;;;;;;9.30;2.20;;;;;;;1.31;57.82;98134.63;5111127;28;19916;-76
2022/01/31 01:47:52;;;;;;;8.32;2.30;;;;;;;1.31;58.50;98121.13;5110926;28;20022;-75
2022/01/31 01:50:17;;;;;;;14.23;2.25;;;;;;;1.30;58.44;98114.88;5093047;28;20031;-77
2022/01/31 01:52:43;;;;;;;12.18;2.22;;;;;;;1.31;58.71;98110.31;5090865;28;20059;-75
2022/01/31 01:55:09;;;;;;;8.45;1.77;;;;;;;1.30;58.24;98095.16;5110242;28;20024;-75
2022/01/31 01:57:34;;;;;;;9.48;2.30;;;;;;;1.30;57.29;98092.47;5110838;28;20107;-75
2022/01/31 02:00:00;;;;;;;12.95;2.42;;;;;;;1.29;58.00;98099.75;5110615;28;20739;-75
2022/01/31 02:02:25;;;;;;;10.60;2.30;;;;;;;1.27;57.72;98087.56;5092488;28;20011;-76
2022/01/31 02:04:51;;;;;;;10.15;2.35;;;;;;;1.26;57.60;98086.72;5092363;28;20062;-76
2022/01/31 02:07:19;;;;;;;9.82;2.60;;;;;;;1.23;58.37;98092.59;5092154;28;20022;-75
2022/01/31 02:09:52;;;;;;;9.65;2.47;;;;;;;1.22;57.64;98072.09;5092391;28;20077;-76
2022/01/31 02:12:18;;;;;;;9.80;1.95;;;;;;;1.17;57.92;98075.50;5110241;28;20027;-76
2022/01/31 02:14:43;;;;;;;12.55;2.42;;;;;;;1.15;57.60;98074.94;5110547;28;20024;-76
2022/01/31 02:17:08;;;;;;;8.63;2.33;;;;;;;1.13;58.01;98074.34;5092386;28;20023;-75
2022/01/31 02:19:34;;;;;;;8.18;1.92;;;;;;;1.10;58.39;98061.31;5092564;28;20475;-77
2022/01/31 02:22:00;;;;;;;8.93;2.40;;;;;;;1.08;57.68;98066.16;5092084;28;20474;-76
2022/01/31 02:24:26;;;;;;;7.38;1.83;;;;;;;1.03;57.99;98056.09;5110182;28;20371;-76
2022/01/31 02:26:51;;;;;;;12.38;1.95;;;;;;;1.03;57.86;98057.97;5110502;28;20059;-77
2022/01/31 02:29:16;;;;;;;8.90;1.90;;;;;;;0.99;58.57;98062.25;5110321;28;20111;-76
2022/01/31 02:31:46;;;;;;;9.60;2.22;;;;;;;0.99;58.02;98064.94;5110155;28;20053;-77
2022/01/31 02:34:12;;;;;;;13.45;2.00;;;;;;;0.96;58.00;98060.03;5105911;28;20063;-76
2022/01/31 02:36:38;;;;;;;10.63;1.95;;;;;;;0.94;58.24;98062.16;5109791;28;20047;-77
2022/01/31 02:39:05;;;;;;;8.45;2.13;;;;;;;0.91;58.35;98063.44;5093484;28;20023;-76
2022/01/31 02:41:30;;;;;;;8.20;1.92;;;;;;;0.91;57.54;98057.22;5109800;28;20032;-77
2022/01/31 02:43:56;;;;;;;10.40;2.05;;;;;;;0.90;57.25;98053.69;5109893;28;20053;-77
2022/01/31 02:46:25;;;;;;;8.40;1.85;;;;;;;0.90;58.22;98064.50;5109813;28;20024;-77
2022/01/31 02:48:52;;;;;;;4.15;1.45;;;;;;;0.92;57.69;98048.88;5109620;28;20066;-77
2022/01/31 02:51:22;;;;;;;10.20;1.80;;;;;;;0.95;57.59;98047.59;5109009;28;20015;-77
2022/01/31 02:53:48;;;;;;;9.98;1.88;;;;;;;0.92;57.74;98040.78;5109492;28;20046;-76
2022/01/31 02:56:13;;;;;;;9.40;1.92;;;;;;;0.93;57.52;98042.41;5109143;28;20030;-77
2022/01/31 02:58:39;;;;;;;6.85;1.40;;;;;;;0.95;57.51;98043.00;5109292;28;20039;-77
2022/01/31 03:01:05;;;;;;;9.77;1.80;;;;;;;0.93;57.53;98041.59;5108898;28;20697;-77
2022/01/31 03:03:31;;;;;;;33.65;10.65;;;;;;;0.86;57.99;98042.56;5109738;28;20360;-77
2022/01/31 03:05:56;;;;;;;10.70;2.50;;;;;;;0.81;58.12;98028.97;5109163;28;20039;-77
2022/01/31 03:08:24;;;;;;;8.48;2.13;;;;;;;0.78;58.88;98015.16;5109344;28;20020;-76
2022/01/31 03:10:49;;;;;;;6.93;1.83;;;;;;;0.73;58.96;98010.47;5108736;28;20041;-75
2022/01/31 03:13:15;;;;;;;8.55;2.00;;;;;;;0.72;58.83;98009.66;5109156;28;20027;-76
2022/01/31 03:15:40;;;;;;;8.20;1.70;;;;;;;0.66;59.34;98005.25;5109027;28;20023;-75
2022/01/31 03:18:06;;;;;;;9.48;1.83;;;;;;;0.65;59.45;97989.28;5107251;27;20066;-76
2022/01/31 03:20:32;;;;;;;12.00;2.00;;;;;;;0.64;59.66;97984.94;5108043;28;20114;-76
2022/01/31 03:22:58;;;;;;;7.00;2.40;;;;;;;0.63;60.25;97989.53;5108620;28;20027;-76
2022/01/31 03:25:23;;;;;;;9.27;1.98;;;;;;;0.62;60.27;97987.06;5090272;28;20016;-76
2022/01/31 03:27:49;;;;;;;11.57;2.45;;;;;;;0.63;60.35;97976.03;5108423;28;20073;-76
2022/01/31 03:30:17;;;;;;;12.15;2.78;;;;;;;0.66;60.38;97975.56;5108592;28;20020;-76
2022/01/31 03:32:43;;;;;;;9.43;1.90;;;;;;;0.67;60.14;97960.16;5108901;28;20019;-75
2022/01/31 03:35:09;;;;;;;9.70;1.83;;;;;;;0.66;59.92;97964.75;5108967;28;20028;-76
2022/01/31 03:37:35;;;;;;;9.65;2.00;;;;;;;0.61;60.35;97955.75;5090271;28;20034;-76
2022/01/31 03:40:02;;;;;;;6.85;1.70;;;;;;;0.62;60.15;97952.81;5108124;28;20049;-76
2022/01/31 03:42:27;;;;;;;8.88;1.80;;;;;;;0.60;60.51;97949.53;5090195;28;20031;-76
2022/01/31 03:44:53;;;;;;;12.35;2.30;;;;;;;0.57;61.03;97948.16;5108518;28;20028;-76
2022/01/31 03:47:23;;;;;;;10.38;1.90;;;;;;;0.54;61.11;97942.41;5111699;28;20444;-76
2022/01/31 03:49:50;;;;;;;7.95;1.45;;;;;;;0.52;61.19;97944.53;5112984;28;20445;-75
2022/01/31 03:52:15;;;;;;;11.90;2.10;;;;;;;0.51;61.48;97940.19;5094150;28;20047;-76
2022/01/31 03:54:42;;;;;;;9.07;1.80;;;;;;;0.45;61.30;97939.28;5092560;28;20483;-76
2022/01/31 03:57:07;;;;;;;8.93;2.38;;;;;;;0.42;61.11;97937.09;5093905;28;20509;-76
2022/01/31 03:59:33;;;;;;;11.95;2.60;;;;;;;0.39;61.88;97932.16;5112831;28;20539;-76
2022/01/31 04:01:59;;;;;;;12.80;2.15;;;;;;;0.39;61.52;97935.69;5094181;28;20019;-77
2022/01/31 04:04:24;;;;;;;7.13;1.77;;;;;;;0.39;61.69;97924.06;5112934;28;20015;-77
2022/01/31 04:06:50;;;;;;;8.80;2.10;;;;;;;0.39;61.32;97927.59;5111958;28;20020;-76
2022/01/31 04:09:16;;;;;;;6.47;1.65;;;;;;;0.37;61.92;97920.81;5110381;28;20035;-77
2022/01/31 04:11:43;;;;;;;10.70;2.33;;;;;;;0.34;61.70;97914.03;5112435;27;20468;-76
2022/01/31 04:14:09;;;;;;;7.75;1.85;;;;;;;0.32;62.32;97901.81;5093729;28;20102;-76
2022/01/31 04:16:35;;;;;;;13.27;2.88;;;;;;;0.28;62.12;97906.91;5093836;28;20019;-76
2022/01/31 04:19:00;;;;;;;9.93;2.03;;;;;;;0.24;61.92;97897.66;5112041;28;20020;-76
2022/01/31 04:21:26;;;;;;;10.52;2.50;;;;;;;0.18;62.13;97899.44;5111839;28;20019;-76
2022/01/31 04:23:51;;;;;;;10.90;2.00;;;;;;;0.13;62.58;97892.06;5111920;28;20030;-76
2022/01/31 04:26:18;;;;;;;7.65;2.45;;;;;;;0.10;62.41;97887.16;5111649;28;20099;-76
2022/01/31 04:28:45;;;;;;;12.05;3.70;;;;;;;0.06;63.00;97890.59;5111782;28;20015;-76
2022/01/31 04:31:26;;;;;;;12.95;2.80;;;;;;;0.02;62.84;97886.75;5111708;28;20479;-76
2022/01/31 04:33:51;;;;;;;13.43;2.85;;;;;;;0.01;63.21;97882.41;5093589;28;20123;-76
2022/01/31 04:36:18;;;;;;;11.50;2.53;;;;;;;-0.03;62.78;97874.00;5111962;28;20437;-76
2022/01/31 04:38:48;;;;;;;9.98;1.95;;;;;;;-0.04;63.05;97875.06;5108245;28;20030;-76
2022/01/31 04:41:14;;;;;;;9.80;2.55;;;;;;;-0.08;63.06;97876.59;5111432;28;20107;-76
2022/01/31 04:43:40;;;;;;;8.18;2.28;;;;;;;-0.12;62.86;97878.94;5111813;28;20142;-76
2022/01/31 04:46:07;;;;;;;15.35;3.33;;;;;;;-0.13;63.19;97868.41;5111601;28;20390;-76
2022/01/31 04:48:33;;;;;;;11.25;2.17;;;;;;;-0.19;63.36;97860.22;5111634;28;20055;-76
2022/01/31 04:50:59;;;;;;;13.93;3.25;;;;;;;-0.22;62.78;97849.13;5111697;28;20030;-77
2022/01/31 04:53:25;;;;;;;11.13;2.78;;;;;;;-0.25;63.49;97850.41;5111463;28;20078;-76
2022/01/31 04:55:50;;;;;;;14.45;3.65;;;;;;;-0.32;63.60;97842.47;5111571;28;20081;-76
2022/01/31 04:58:16;;;;;;;11.98;3.35;;;;;;;-0.34;63.56;97835.69;5110224;28;20024;-76
2022/01/31 05:00:42;;;;;;;17.00;3.65;;;;;;;-0.37;63.86;97834.28;5092678;28;20020;-76
2022/01/31 05:03:16;;;;;;;16.45;3.20;;;;;;;-0.39;63.70;97833.72;5111301;28;20030;-76
2022/01/31 05:05:43;;;;;;;14.40;3.80;;;;;;;-0.40;63.70;97832.06;5111599;28;20132;-76
2022/01/31 05:08:08;;;;;;;12.05;3.50;;;;;;;-0.38;63.73;97835.34;5111120;28;20289;-76
2022/01/31 05:10:35;;;;;;;13.60;4.68;;;;;;;-0.36;64.05;97833.22;5110809;28;20479;-75
2022/01/31 05:13:01;;;;;;;14.85;4.68;;;;;;;-0.33;63.75;97832.75;5111267;28;20028;-76
2022/01/31 05:15:27;;;;;;;11.70;3.72;;;;;;;-0.25;63.84;97825.34;5111781;28;20361;-77
2022/01/31 05:17:52;;;;;;;12.48;4.15;;;;;;;-0.20;64.02;97818.16;5111332;28;20023;-79
2022/01/31 05:20:17;;;;;;;14.13;3.75;;;;;;;-0.20;64.27;97809.25;5110851;28;20382;-79
2022/01/31 05:22:43;;;;;;;12.57;3.53;;;;;;;-0.17;63.68;97817.69;5111766;28;20055;-79
2022/01/31 05:25:09;;;;;;;18.02;3.65;;;;;;;-0.13;64.17;97807.22;5111335;28;20024;-79
2022/01/31 05:27:34;;;;;;;15.70;3.00;;;;;;;-0.11;63.63;97801.59;5110774;28;20035;-78
2022/01/31 05:30:00;;;;;;;11.55;2.50;;;;;;;-0.09;63.90;97796.78;5093197;28;20072;-79
2022/01/31 05:32:25;;;;;;;12.52;2.72;;;;;;;-0.07;63.48;97798.16;5110920;28;20431;-79
2022/01/31 05:34:51;;;;;;;11.50;3.20;;;;;;;-0.06;63.21;97793.59;5111304;28;20049;-79
2022/01/31 05:37:16;;;;;;;10.73;3.28;;;;;;;-0.06;63.60;97788.22;5111186;28;20042;-78
2022/01/31 05:39:43;;;;;;;18.33;4.60;;;;;;;-0.06;63.58;97780.94;5076633;28;20030;-79
2022/01/31 05:42:09;;;;;;;25.33;7.22;;;;;;;-0.04;63.88;97778.00;5110649;28;20604;-79
2022/01/31 05:44:34;;;;;;;35.78;8.15;;;;;;;0.04;63.87;97784.88;5110759;28;20118;-78
2022/01/31 05:47:00;;;;;;;34.08;8.25;;;;;;;0.09;63.45;97780.38;5111080;28;20035;-77
2022/01/31 05:49:26;;;;;;;30.35;8.95;;;;;;;0.13;63.51;97788.78;5110841;28;20076;-79
2022/01/31 05:52:04;;;;;;;29.58;8.27;;;;;;;0.16;63.61;97798.25;5110572;28;20039;-77
2022/01/31 05:54:30;;;;;;;26.17;7.28;;;;;;;0.18;63.39;97793.44;5091678;28;20051;-77
2022/01/31 05:56:56;;;;;;;16.77;5.20;;;;;;;0.20;63.05;97786.75;5110598;28;20027;-78
2022/01/31 05:59:22;;;;;;;21.48;6.78;;;;;;;0.20;63.55;97784.06;5110802;28;20042;-79
2022/01/31 06:01:47;;;;;;;20.98;6.65;;;;;;;0.20;63.44;97792.16;5093076;28;20034;-79
2022/01/31 06:04:13;;;;;;;24.77;8.70;;;;;;;0.22;63.27;97781.09;5111934;28;20031;-79
2022/01/31 06:06:38;;;;;;;23.15;8.57;;;;;;;0.23;63.13;97778.16;5092684;28;20031;-79
2022/01/31 06:09:05;;;;;;;25.52;7.20;;;;;;;0.27;63.35;97768.50;5110561;28;20116;-79
2022/01/31 06:11:33;;;;;;;33.20;8.73;;;;;;;0.29;63.48;97773.69;5108842;28;20104;-78
2022/01/31 06:14:00;;;;;;;25.45;7.57;;;;;;;0.28;63.20;97764.75;5110481;28;20035;-78
2022/01/31 06:16:29;;;;;;;30.55;8.27;;;;;;;0.32;63.52;97761.56;5109065;28;20051;-78
2022/01/31 06:18:55;;;;;;;28.35;8.68;;;;;;;0.33;62.81;97769.41;5110827;27;20028;-77
2022/01/31 06:21:21;;;;;;;22.70;6.00;;;;;;;0.38;62.80;97768.66;5109766;28;20465;-78
2022/01/31 06:23:46;;;;;;;26.90;6.15;;;;;;;0.41;63.02;97768.19;5110342;28;20039;-78
2022/01/31 06:26:12;;;;;;;20.60;5.78;;;;;;;0.44;62.49;97760.41;5110910;28;20027;-77
2022/01/31 06:28:37;;;;;;;20.20;5.43;;;;;;;0.45;63.23;97750.44;5107458;28;20028;-77
2022/01/31 06:31:03;;;;;;;19.17;5.63;;;;;;;0.44;62.75;97740.72;5107198;28;20034;-78
2022/01/31 06:33:28;;;;;;;32.90;9.48;;;;;;;0.45;62.98;97739.66;5110047;28;20123;-77
2022/01/31 06:35:57;;;;;;;36.22;8.60;;;;;;;0.47;62.18;97739.38;5089880;28;20027;-78
2022/01/31 06:38:23;;;;;;;35.30;8.38;;;;;;;0.46;62.54;97737.75;5093255;28;20036;-77
2022/01/31 06:40:49;;;;;;;32.30;10.00;;;;;;;0.49;62.40;97732.69;5109969;28;20043;-77
2022/01/31 06:43:14;;;;;;;37.63;11.85;;;;;;;0.53;62.92;97730.31;5108305;28;20046;-78
2022/01/31 06:45:40;;;;;;;21.23;6.60;;;;;;;0.54;62.49;97729.22;5108691;28;20106;-78
2022/01/31 06:48:06;;;;;;;11.00;3.63;;;;;;;0.57;62.66;97732.28;5106798;27;20036;-78
2022/01/31 06:50:32;;;;;;;16.23;4.30;;;;;;;0.60;62.63;97725.53;5109553;28;20032;-75
2022/01/31 06:52:58;;;;;;;17.60;4.93;;;;;;;0.66;62.45;97721.03;5089663;27;20825;-75
2022/01/31 06:55:24;;;;;;;17.83;5.70;;;;;;;0.69;62.03;97715.13;5110060;28;20073;-77
2022/01/31 06:57:54;;;;;;;21.83;6.50;;;;;;;0.68;62.46;97717.03;5106987;28;20027;-78
2022/01/31 07:00:20;;;;;;;25.08;7.13;;;;;;;0.71;61.80;97715.69;5115303;27;20088;-77
2022/01/31 07:02:47;;;;;;;22.45;7.95;;;;;;;0.70;62.67;97705.97;5089913;28;20059;-76
2022/01/31 07:05:14;;;;;;;29.17;9.05;;;;;;;0.69;62.12;97710.56;5103908;27;20052;-76
2022/01/31 07:07:40;;;;;;;47.28;14.80;;;;;;;0.72;62.33;97693.03;5112613;27;20031;-76
2022/01/31 07:10:06;;;;;;;80.85;19.17;;;;;;;0.71;61.76;97688.72;5102763;28;20110;-77
2022/01/31 07:12:36;;;;;;;64.18;19.02;;;;;;;0.70;62.35;97687.06;5108908;27;20055;-76
2022/01/31 07:15:05;;;;;;;44.40;13.48;;;;;;;0.70;62.26;97679.81;5108742;27;20028;-78
2022/01/31 07:17:31;;;;;;;25.65;7.13;;;;;;;0.75;62.67;97676.34;5109709;28;20050;-76
2022/01/31 07:19:58;;;;;;;20.42;6.35;;;;;;;0.79;62.46;97677.47;5110997;27;20089;-78
2022/01/31 07:22:32;;;;;;;30.60;10.48;;;;;;;0.82;62.50;97685.06;5090475;28;20039;-77
2022/01/31 07:25:03;;;;;;;28.65;9.43;;;;;;;0.82;62.13;97668.88;5110803;28;20019;-82
2022/01/31 07:27:29;;;;;;;24.45;7.10;;;;;;;0.88;62.77;97669.75;5109493;28;20051;-82
2022/01/31 07:29:54;;;;;;;30.70;8.45;;;;;;;0.88;62.42;97664.34;5091188;28;20062;-78
2022/01/31 07:32:20;;;;;;;42.95;11.27;;;;;;;0.89;62.49;97671.38;5107638;28;20031;-77
2022/01/31 07:34:46;;;;;;;39.70;12.57;;;;;;;0.91;62.14;97666.53;5110447;28;20019;-77
2022/01/31 07:37:12;;;;;;;47.70;14.32;;;;;;;0.92;62.49;97670.06;5108855;28;20407;-77
2022/01/31 07:39:40;;;;;;;48.85;14.40;;;;;;;0.92;62.08;97659.25;5107487;28;20386;-78
2022/01/31 07:42:06;;;;;;;35.38;10.55;;;;;;;0.91;62.49;97661.13;5109836;28;20604;-79
2022/01/31 07:44:31;;;;;;;34.67;10.35;;;;;;;0.92;62.22;97649.28;5090435;28;20130;-77
2022/01/31 07:46:57;;;;;;;52.22;14.23;;;;;;;0.88;62.43;97643.56;5109618;28;20028;-77
2022/01/31 07:49:22;;;;;;;67.00;19.05;;;;;;;0.86;62.35;97640.31;5111902;28;20418;-78
2022/01/31 07:51:48;;;;;;;52.03;14.98;;;;;;;0.86;62.35;97636.78;5088640;28;20031;-79
2022/01/31 07:54:14;;;;;;;43.10;12.05;;;;;;;0.87;62.04;97636.53;5107468;28;20042;-79
2022/01/31 07:56:39;;;;;;;39.20;10.75;;;;;;;0.90;62.53;97637.91;5088984;28;20035;-81
2022/01/31 07:59:05;;;;;;;38.50;13.35;;;;;;;0.91;62.51;97630.63;5109027;28;20484;-82
2022/01/31 08:01:30;;;;;;;55.30;16.30;;;;;;;0.94;62.85;97622.03;5109617;28;20039;-80
2022/01/31 08:03:56;;;;;;;35.58;10.30;;;;;;;1.00;62.68;97623.72;5109175;28;20356;-79
2022/01/31 08:06:21;;;;;;;36.58;10.18;;;;;;;1.02;62.88;97613.44;5109531;28;20408;-81
2022/01/31 08:08:46;;;;;;;36.78;10.57;;;;;;;1.06;62.61;97600.28;5109355;28;20028;-80
2022/01/31 08:11:14;;;;;;;54.08;13.90;;;;;;;1.08;63.07;97592.72;5113795;28;20035;-82
2022/01/31 08:13:39;;;;;;;43.90;12.40;;;;;;;1.12;62.60;97591.94;5112213;28;20476;-74
2022/01/31 08:18:34;;;;;;;33.05;9.68;;;;;;;1.13;62.60;97579.28;5110335;28;20024;-81
2022/01/31 08:21:01;;;;;;;32.17;9.05;;;;;;;1.15;62.96;97591.44;5089553;28;20054;-80
2022/01/31 08:23:26;;;;;;;30.55;8.95;;;;;;;1.18;62.92;97584.72;5109537;28;20020;-79
2022/01/31 08:25:52;;;;;;;52.90;16.40;;;;;;;1.22;63.12;97590.41;5109733;28;20364;-78
2022/01/31 08:28:21;;;;;;;46.58;13.20;;;;;;;1.23;63.13;97590.16;5108301;28;20030;-77
2022/01/31 08:30:57;;;;;;;44.70;14.43;;;;;;;1.27;62.50;97588.56;5110482;28;20031;-73
2022/01/31 08:33:35;;;;;;;38.70;12.40;;;;;;;1.26;62.80;97575.34;5108312;28;20083;-74
2022/01/31 08:36:07;;;;;;;34.95;10.52;;;;;;;1.26;62.14;97559.91;5110551;28;20498;-72
2022/01/31 08:38:34;;;;;;;29.98;8.75;;;;;;;1.31;62.78;97553.75;5109952;28;20069;-75
2022/01/31 08:41:00;;;;;;;24.95;7.88;;;;;;;1.33;62.95;97552.41;5111702;28;20063;-73
2022/01/31 08:43:26;;;;;;;32.20;9.75;;;;;;;1.34;62.78;97542.44;5111966;28;20506;-72
2022/01/31 08:45:55;;;;;;;36.53;11.50;;;;;;;1.36;62.44;97532.19;5112046;27;20504;-71
2022/01/31 08:48:21;;;;;;;33.97;10.10;;;;;;;1.41;62.84;97528.72;5112568;28;20036;-68
2022/01/31 08:50:46;;;;;;;31.67;10.73;;;;;;;1.46;62.39;97526.03;5111597;28;20617;-71
2022/01/31 08:53:12;;;;;;;43.63;14.30;;;;;;;1.49;62.18;97520.91;5111862;28;20123;-71
2022/01/31 08:55:37;;;;;;;38.00;11.50;;;;;;;1.58;62.52;97515.03;5110871;28;20483;-72
2022/01/31 08:58:05;;;;;;;32.25;10.32;;;;;;;1.62;62.48;97505.34;5111550;28;20038;-69
2022/01/31 09:00:36;;;;;;;24.35;8.50;;;;;;;1.64;62.30;97498.56;5092228;27;21262;-69
2022/01/31 09:03:18;;;;;;;;;;;;;;;1.69;61.48;97489.69;5111920;27;20092;-73
2022/01/31 09:05:43;;;;;;;28.02;7.70;;;;;;;1.71;62.19;97492.94;5107872;27;19976;-73
2022/01/31 09:08:09;;;;;;;21.67;7.00;;;;;;;1.70;62.00;97498.59;5111523;28;20114;-70
2022/01/31 09:10:34;;;;;;;24.50;7.38;;;;;;;1.69;61.21;97486.16;5108197;28;20086;-75
2022/01/31 09:13:00;;;;;;;22.95;6.22;;;;;;;1.67;61.60;97485.63;5094739;28;20114;-69
2022/01/31 09:15:26;;;;;;;26.83;7.75;;;;;;;1.67;61.77;97499.97;5112631;28;20031;-69
2022/01/31 09:17:51;;;;;;;25.20;7.57;;;;;;;1.67;61.53;97499.13;5112228;28;20039;-66
2022/01/31 09:20:18;;;;;;;26.10;8.00;;;;;;;1.68;61.60;97495.34;5112869;27;20055;-68
2022/01/31 09:22:44;;;;;;;29.88;8.32;;;;;;;1.67;61.73;97497.25;5108201;28;20112;-68
2022/01/31 09:25:14;;;;;;;27.75;7.82;;;;;;;1.69;61.95;97492.41;5095882;27;20747;-67
2022/01/31 09:27:41;;;;;;;29.38;8.75;;;;;;;1.73;61.82;97492.69;5113828;27;20023;-68
2022/01/31 09:30:09;;;;;;;30.63;10.30;;;;;;;1.78;61.76;97493.53;5113019;27;20362;-67
2022/01/31 09:32:35;;;;;;;41.78;13.55;;;;;;;1.82;61.55;97491.09;5111944;27;20035;-66
2022/01/31 09:35:01;;;;;;;36.67;12.48;;;;;;;1.82;61.51;97482.19;5110143;28;20087;-67
2022/01/31 09:37:26;;;;;;;34.72;11.45;;;;;;;1.85;61.66;97481.66;5112537;27;20050;-68
2022/01/31 09:39:53;;;;;;;38.25;10.68;;;;;;;1.88;61.36;97475.72;5091687;28;20024;-68
2022/01/31 09:42:28;;;;;;;29.52;9.00;;;;;;;1.86;61.23;97467.06;5110711;28;20424;-69
2022/01/31 09:48:32;;;;;;;30.77;9.15;;;;;;;1.90;61.73;97462.75;5111883;28;21015;-70
2022/01/31 09:50:12;;;;;;;25.60;8.63;;;;;;;1.86;61.21;97462.47;5110869;28;20540;-69
2022/01/31 09:52:38;;;;;;;39.92;14.07;;;;;;;1.81;61.02;97454.34;5092514;28;20027;-69
2022/01/31 09:55:05;;;;;;;39.88;10.38;;;;;;;1.76;61.07;97454.31;5112542;27;20099;-70
2022/01/31 09:57:30;;;;;;;32.08;9.35;;;;;;;1.75;61.38;97458.09;5111365;28;20387;-71
2022/01/31 09:59:56;;;;;;;34.42;10.50;;;;;;;1.76;61.32;97443.50;5111519;28;20027;-70
2022/01/31 10:02:21;;;;;;;33.50;11.02;;;;;;;1.76;61.30;97441.63;5091675;28;20714;-70
2022/01/31 10:04:50;;;;;;;37.83;11.15;;;;;;;1.76;61.14;97443.50;5112312;28;20073;-68
2022/01/31 10:07:17;;;;;;;28.10;8.43;;;;;;;1.71;60.46;97428.06;5112188;28;20488;-68
2022/01/31 10:09:48;;;;;;;31.83;10.68;;;;;;;1.74;60.83;97437.53;5112223;28;20027;-67
2022/01/31 10:16:25;;;;;;;30.05;13.32;;;;;;;1.77;60.30;97428.91;5111678;28;20524;-69
2022/01/31 10:18:00;;;;;;;21.63;7.22;;;;;;;1.83;59.79;97411.63;5111963;28;20038;-69
2022/01/31 10:20:33;;;;;;;32.70;8.40;;;;;;;1.87;60.17;97412.72;5111566;28;20439;-68
2022/01/31 10:23:05;;;;;;;27.25;8.25;;;;;;;1.95;59.95;97408.69;5112271;28;20020;-69
2022/01/31 10:25:32;;;;;;;31.90;9.98;;;;;;;2.06;60.67;97396.81;5111068;28;20034;-70
2022/01/31 10:27:57;;;;;;;31.55;9.23;;;;;;;2.15;60.00;97399.00;5111259;28;20039;-69
2022/01/31 10:30:29;;;;;;;32.72;9.02;;;;;;;2.17;59.80;97404.97;5111555;28;20024;-69
2022/01/31 10:32:56;;;;;;;30.80;8.98;;;;;;;2.19;60.04;97397.41;5108472;28;20031;-69
2022/01/31 10:35:23;;;;;;;32.08;8.85;;;;;;;2.19;59.25;97395.50;5092558;28;20051;-69
2022/01/31 10:37:53;;;;;;;33.85;9.30;;;;;;;2.23;59.72;97399.28;5110213;28;20031;-69
2022/01/31 10:43:37;;;;;;;33.47;8.60;;;;;;;2.28;59.33;97394.97;5106070;28;20134;-69
2022/01/31 10:54:05;;;;;;;32.05;9.10;;;;;;;2.26;58.65;97380.91;5110728;28;20035;-66
2022/01/31 10:57:12;;;;;;;28.50;8.75;;;;;;;2.22;59.67;97378.72;5111522;27;20084;-71
2022/01/31 10:59:39;;;;;;;34.28;12.43;;;;;;;2.23;59.66;97379.56;5105972;28;20028;-72
2022/01/31 11:02:08;;;;;;;26.92;9.00;;;;;;;2.25;59.56;97366.53;5109356;28;20028;-69
2022/01/31 11:04:39;;;;;;;22.98;6.93;;;;;;;2.26;59.76;97372.78;5110126;28;20035;-74
2022/01/31 11:07:08;;;;;;;23.33;6.95;;;;;;;2.31;59.93;97360.06;5108940;28;20035;-74
2022/01/31 11:09:34;;;;;;;30.80;9.25;;;;;;;2.32;59.68;97358.97;5108171;28;20024;-73
2022/01/31 11:12:01;;;;;;;28.70;8.10;;;;;;;2.30;58.82;97361.13;5107965;27;20447;-71
2022/01/31 11:14:26;;;;;;;42.60;15.63;;;;;;;2.26;59.49;97365.47;5109302;28;20483;-71
2022/01/31 11:16:56;;;;;;;33.78;11.02;;;;;;;2.32;59.46;97358.19;5090594;28;20038;-72
2022/01/31 11:19:31;;;;;;;51.35;18.23;;;;;;;2.34;59.25;97359.53;5109506;28;20046;-71
2022/01/31 11:22:01;;;;;;;30.48;9.98;;;;;;;2.37;59.15;97348.16;5087330;28;20027;-71
2022/01/31 11:24:31;;;;;;;21.55;7.65;;;;;;;2.48;59.09;97342.75;5090681;28;20498;-71
2022/01/31 11:27:03;;;;;;;30.52;8.05;;;;;;;2.53;59.19;97338.13;5106646;28;20051;-71
2022/01/31 11:29:32;;;;;;;25.38;8.13;;;;;;;2.57;58.51;97338.44;5109792;28;20032;-71
2022/01/31 11:31:58;;;;;;;23.90;7.20;;;;;;;2.64;58.57;97336.25;5109508;28;20032;-71
2022/01/31 11:34:25;;;;;;;26.13;7.18;;;;;;;2.66;58.23;97333.28;5108705;28;20019;-71
2022/01/31 11:36:51;;;;;;;29.02;7.47;;;;;;;2.63;58.10;97329.22;5109031;28;20124;-70
2022/01/31 11:39:17;;;;;;;25.02;6.57;;;;;;;2.59;57.36;97314.59;5110231;28;20031;-73
2022/01/31 11:41:50;;;;;;;19.27;5.53;;;;;;;2.57;58.07;97314.06;5107263;28;20422;-72
2022/01/31 11:44:57;;;;;;;22.15;6.05;;;;;;;2.61;57.48;97315.16;5091739;28;20101;-71
2022/01/31 11:47:24;;;;;;;23.98;7.07;;;;;;;2.70;56.76;97314.56;5102018;28;20495;-72
2022/01/31 11:49:56;;;;;;;21.50;4.90;;;;;;;2.74;57.12;97304.81;5110778;28;20024;-73
2022/01/31 11:52:23;;;;;;;26.90;6.07;;;;;;;2.82;56.89;97285.31;5108605;28;20056;-71
2022/01/31 11:54:57;;;;;;;23.40;6.20;;;;;;;2.89;56.96;97293.97;5109320;28;20120;-73
2022/01/31 11:57:31;;;;;;;23.00;6.15;;;;;;;3.00;56.79;97286.63;5110314;28;20031;-72